sensor_id;sensor_type;location;lat;lon;timestamp;pressure;altitude;pressure_sealevel;temperature;humidity
68433;BME280;55412;51.350;17.056;2023-11-21T00:00:49;99439.91;;;7.65;87.10
68433;BME280;55412;51.350;17.056;2023-11-21T00:03:15;99440.78;;;7.64;87.01
68433;BME280;55412;51.350;17.056;2023-11-21T00:05:41;99448.53;;;7.63;87.19
68433;BME280;55412;51.350;17.056;2023-11-21T00:08:07;99447.66;;;7.62;87.62
68433;BME280;55412;51.350;17.056;2023-11-21T00:10:34;99448.53;;;7.63;87.02
68433;BME280;55412;51.350;17.056;2023-11-21T00:13:00;99449.38;;;7.62;87.70
68433;BME280;55412;51.350;17.056;2023-11-21T00:15:28;99452.84;;;7.61;87.00
68433;BME280;55412;51.350;17.056;2023-11-21T00:17:53;99442.50;;;7.61;87.58
68433;BME280;55412;51.350;17.056;2023-11-21T00:20:20;99437.38;;;7.55;87.17
68433;BME280;55412;51.350;17.056;2023-11-21T00:22:49;99445.13;;;7.58;87.29
68433;BME280;55412;51.350;17.056;2023-11-21T00:25:15;99446.00;;;7.57;87.02
68433;BME280;55412;51.350;17.056;2023-11-21T00:27:42;99456.31;;;7.54;87.38
68433;BME280;55412;51.350;17.056;2023-11-21T00:30:08;99458.03;;;7.53;87.41
68433;BME280;55412;51.350;17.056;2023-11-21T00:32:37;99449.47;;;7.51;87.52
68433;BME280;55412;51.350;17.056;2023-11-21T00:35:04;99458.94;;;7.51;87.03
68433;BME280;55412;51.350;17.056;2023-11-21T00:37:31;99452.91;;;7.50;87.41
68433;BME280;55412;51.350;17.056;2023-11-21T00:39:57;99454.63;;;7.48;87.44
68433;BME280;55412;51.350;17.056;2023-11-21T00:42:23;99459.78;;;7.48;87.47
68433;BME280;55412;51.350;17.056;2023-11-21T00:44:49;99460.66;;;7.47;87.41
68433;BME280;55412;51.350;17.056;2023-11-21T00:47:15;99456.34;;;7.46;87.07
68433;BME280;55412;51.350;17.056;2023-11-21T00:49:41;99457.22;;;7.45;87.11
68433;BME280;55412;51.350;17.056;2023-11-21T00:52:07;99450.34;;;7.44;87.61
68433;BME280;55412;51.350;17.056;2023-11-21T00:54:33;99449.50;;;7.43;87.43
68433;BME280;55412;51.350;17.056;2023-11-21T00:56:59;99451.19;;;7.41;86.96
68433;BME280;55412;51.350;17.056;2023-11-21T00:59:25;99459.81;;;7.43;87.42
68433;BME280;55412;51.350;17.056;2023-11-21T01:01:51;99452.94;;;7.42;87.43
68433;BME280;55412;51.350;17.056;2023-11-21T01:04:17;99462.41;;;7.42;87.14
68433;BME280;55412;51.350;17.056;2023-11-21T01:06:42;99446.94;;;7.37;87.37
68433;BME280;55412;51.350;17.056;2023-11-21T01:09:09;99449.50;;;7.42;87.05
68433;BME280;55412;51.350;17.056;2023-11-21T01:11:35;99457.25;;;7.42;87.20
68433;BME280;55412;51.350;17.056;2023-11-21T01:14:02;99451.22;;;7.40;87.14
68433;BME280;55412;51.350;17.056;2023-11-21T01:16:29;99451.25;;;7.35;87.21
68433;BME280;55412;51.350;17.056;2023-11-21T01:18:54;99460.66;;;7.41;87.42
68433;BME280;55412;51.350;17.056;2023-11-21T01:21:20;99464.13;;;7.40;86.96
68433;BME280;55412;51.350;17.056;2023-11-21T01:23:46;99462.38;;;7.40;87.07
68433;BME280;55412;51.350;17.056;2023-11-21T01:26:13;99459.84;;;7.42;87.08
68433;BME280;55412;51.350;17.056;2023-11-21T01:28:38;99459.81;;;7.40;86.83
68433;BME280;55412;51.350;17.056;2023-11-21T01:31:04;99455.50;;;7.41;86.74
68433;BME280;55412;51.350;17.056;2023-11-21T01:33:33;99460.66;;;7.41;86.75
68433;BME280;55412;51.350;17.056;2023-11-21T01:35:58;99469.28;;;7.40;86.98
68433;BME280;55412;51.350;17.056;2023-11-21T01:38:25;99465.81;;;7.41;87.20
68433;BME280;55412;51.350;17.056;2023-11-21T01:40:51;99464.13;;;7.40;86.76
68433;BME280;55412;51.350;17.056;2023-11-21T01:43:17;99465.84;;;7.39;86.67
68433;BME280;55412;51.350;17.056;2023-11-21T01:45:43;99465.84;;;7.38;86.83
68433;BME280;55412;51.350;17.056;2023-11-21T01:48:11;99464.97;;;7.39;86.71
68433;BME280;55412;51.350;17.056;2023-11-21T01:50:38;99475.31;;;7.37;86.72
68433;BME280;55412;51.350;17.056;2023-11-21T01:53:04;99457.28;;;7.31;87.26
68433;BME280;55412;51.350;17.056;2023-11-21T01:55:33;99468.44;;;7.36;86.96
68433;BME280;55412;51.350;17.056;2023-11-21T01:57:59;99463.28;;;7.35;86.65
68433;BME280;55412;51.350;17.056;2023-11-21T02:00:25;99475.31;;;7.34;86.59
68433;BME280;55412;51.350;17.056;2023-11-21T02:02:53;99452.97;;;7.26;87.16
68433;BME280;55412;51.350;17.056;2023-11-21T02:05:19;99471.91;;;7.31;86.56
68433;BME280;55412;51.350;17.056;2023-11-21T02:07:47;99470.19;;;7.31;86.67
68433;BME280;55412;51.350;17.056;2023-11-21T02:10:17;99468.44;;;7.32;86.81
68433;BME280;55412;51.350;17.056;2023-11-21T02:12:49;99463.31;;;7.27;86.75
68433;BME280;55412;51.350;17.056;2023-11-21T02:15:18;99468.47;;;7.30;86.86
68433;BME280;55412;51.350;17.056;2023-11-21T02:17:49;99471.03;;;7.32;87.05
68433;BME280;55412;51.350;17.056;2023-11-21T02:20:20;99477.06;;;7.31;87.22
68433;BME280;55412;51.350;17.056;2023-11-21T02:22:52;99481.34;;;7.32;86.98
68433;BME280;55412;51.350;17.056;2023-11-21T02:25:29;99476.22;;;7.29;86.77
68433;BME280;55412;51.350;17.056;2023-11-21T02:27:56;99483.94;;;7.30;86.70
68433;BME280;55412;51.350;17.056;2023-11-21T02:30:23;99480.50;;;7.27;86.75
68433;BME280;55412;51.350;17.056;2023-11-21T02:32:50;99476.22;;;7.27;86.75
68433;BME280;55412;51.350;17.056;2023-11-21T02:35:19;99456.47;;;7.20;87.31
68433;BME280;55412;51.350;17.056;2023-11-21T02:37:48;99467.66;;;7.20;86.77
68433;BME280;55412;51.350;17.056;2023-11-21T02:40:14;99481.38;;;7.26;86.85
68433;BME280;55412;51.350;17.056;2023-11-21T02:42:49;99488.25;;;7.27;86.91
68433;BME280;55412;51.350;17.056;2023-11-21T02:45:21;99481.38;;;7.26;86.85
68433;BME280;55412;51.350;17.056;2023-11-21T02:47:47;99474.50;;;7.25;86.57
68433;BME280;55412;51.350;17.056;2023-11-21T02:50:14;99478.81;;;7.24;87.05
68433;BME280;55412;51.350;17.056;2023-11-21T02:52:40;99487.41;;;7.23;86.54
68433;BME280;55412;51.350;17.056;2023-11-21T02:55:06;99484.84;;;7.23;86.99
68433;BME280;55412;51.350;17.056;2023-11-21T02:57:33;99480.53;;;7.22;86.71
68433;BME280;55412;51.350;17.056;2023-11-21T02:59:59;99480.53;;;7.22;86.86
68433;BME280;55412;51.350;17.056;2023-11-21T03:02:28;99483.13;;;7.22;86.97
68433;BME280;55412;51.350;17.056;2023-11-21T03:04:53;99487.44;;;7.20;86.40
68433;BME280;55412;51.350;17.056;2023-11-21T03:07:19;99481.41;;;7.13;86.90
68433;BME280;55412;51.350;17.056;2023-11-21T03:09:47;99491.72;;;7.21;86.97
68433;BME280;55412;51.350;17.056;2023-11-21T03:12:13;99490.84;;;7.19;87.30
68433;BME280;55412;51.350;17.056;2023-11-21T03:14:39;99494.28;;;7.19;86.76
68433;BME280;55412;51.350;17.056;2023-11-21T03:17:05;99493.44;;;7.17;86.56
68433;BME280;55412;51.350;17.056;2023-11-21T03:19:32;99494.28;;;7.19;87.02
68433;BME280;55412;51.350;17.056;2023-11-21T03:21:57;99500.31;;;7.18;86.70
68433;BME280;55412;51.350;17.056;2023-11-21T03:24:24;99496.00;;;7.19;86.92
68433;BME280;55412;51.350;17.056;2023-11-21T03:26:50;99492.56;;;7.18;87.34
68433;BME280;55412;51.350;17.056;2023-11-21T03:29:16;99497.72;;;7.18;86.91
68433;BME280;55412;51.350;17.056;2023-11-21T03:31:42;99479.72;;;7.12;86.61
68433;BME280;55412;51.350;17.056;2023-11-21T03:34:15;99500.31;;;7.18;86.78
68433;BME280;55412;51.350;17.056;2023-11-21T03:36:41;99501.16;;;7.19;87.15
68433;BME280;55412;51.350;17.056;2023-11-21T03:39:07;99498.59;;;7.19;86.39
68433;BME280;55412;51.350;17.056;2023-11-21T03:41:32;99500.31;;;7.18;87.50
68433;BME280;55412;51.350;17.056;2023-11-21T03:43:59;99496.00;;;7.19;87.35
68433;BME280;55412;51.350;17.056;2023-11-21T03:46:25;99498.59;;;7.19;86.73
68433;BME280;55412;51.350;17.056;2023-11-21T03:48:51;99481.41;;;7.13;87.06
68433;BME280;55412;51.350;17.056;2023-11-21T03:51:16;99490.00;;;7.15;86.63
68433;BME280;55412;51.350;17.056;2023-11-21T03:53:42;99493.44;;;7.17;87.15
68433;BME280;55412;51.350;17.056;2023-11-21T03:56:08;99498.59;;;7.19;86.47
68433;BME280;55412;51.350;17.056;2023-11-21T03:58:34;99500.31;;;7.17;86.72
68433;BME280;55412;51.350;17.056;2023-11-21T04:00:59;99508.91;;;7.17;86.96
68433;BME280;55412;51.350;17.056;2023-11-21T04:03:25;99500.34;;;7.12;86.78
68433;BME280;55412;51.350;17.056;2023-11-21T04:05:51;99514.09;;;7.17;86.96
68433;BME280;55412;51.350;17.056;2023-11-21T04:08:17;99522.69;;;7.16;87.26
68433;BME280;55412;51.350;17.056;2023-11-21T04:10:42;99516.66;;;7.16;86.79
68433;BME280;55412;51.350;17.056;2023-11-21T04:13:08;99523.56;;;7.15;87.05
68433;BME280;55412;51.350;17.056;2023-11-21T04:15:34;99510.66;;;7.14;86.91
68433;BME280;55412;51.350;17.056;2023-11-21T04:18:00;99510.66;;;7.14;87.29
68433;BME280;55412;51.350;17.056;2023-11-21T04:20:25;99525.28;;;7.15;87.39
68433;BME280;55412;51.350;17.056;2023-11-21T04:22:51;99523.56;;;7.12;86.66
68433;BME280;55412;51.350;17.056;2023-11-21T04:25:17;99527.00;;;7.16;87.11
68433;BME280;55412;51.350;17.056;2023-11-21T04:27:44;99518.41;;;7.14;87.32
68433;BME280;55412;51.350;17.056;2023-11-21T04:30:11;99528.72;;;7.15;86.86
68433;BME280;55412;51.350;17.056;2023-11-21T04:32:37;99533.88;;;7.17;87.37
68433;BME280;55412;51.350;17.056;2023-11-21T04:35:04;99535.59;;;7.16;87.23
68433;BME280;55412;51.350;17.056;2023-11-21T04:37:30;99537.31;;;7.17;86.92
68433;BME280;55412;51.350;17.056;2023-11-21T04:39:56;99539.03;;;7.15;87.28
68433;BME280;55412;51.350;17.056;2023-11-21T04:42:22;99542.47;;;7.16;86.82
68433;BME280;55412;51.350;17.056;2023-11-21T04:44:48;99528.72;;;7.08;87.19
68433;BME280;55412;51.350;17.056;2023-11-21T04:47:14;99534.72;;;7.11;87.63
68433;BME280;55412;51.350;17.056;2023-11-21T04:49:43;99549.38;;;7.14;87.27
68433;BME280;55412;51.350;17.056;2023-11-21T04:52:09;99544.22;;;7.14;86.91
68433;BME280;55412;51.350;17.056;2023-11-21T04:54:35;99542.50;;;7.13;87.10
68433;BME280;55412;51.350;17.056;2023-11-21T04:57:01;99546.78;;;7.14;86.94
68433;BME280;55412;51.350;17.056;2023-11-21T04:59:27;99549.34;;;7.17;86.95
68433;BME280;55412;51.350;17.056;2023-11-21T05:01:53;99548.50;;;7.15;87.04
68433;BME280;55412;51.350;17.056;2023-11-21T05:04:21;99545.06;;;7.16;87.28
68433;BME280;55412;51.350;17.056;2023-11-21T05:06:48;99549.34;;;7.17;87.58
68433;BME280;55412;51.350;17.056;2023-11-21T05:09:14;99552.78;;;7.17;86.89
68433;BME280;55412;51.350;17.056;2023-11-21T05:11:41;99546.78;;;7.17;87.35
68433;BME280;55412;51.350;17.056;2023-11-21T05:14:07;99548.50;;;7.16;87.53
68433;BME280;55412;51.350;17.056;2023-11-21T05:16:34;99546.78;;;7.15;87.15
68433;BME280;55412;51.350;17.056;2023-11-21T05:19:01;99542.47;;;7.14;86.83
68433;BME280;55412;51.350;17.056;2023-11-21T05:21:27;99547.66;;;7.14;87.14
68433;BME280;55412;51.350;17.056;2023-11-21T05:23:53;99555.38;;;7.14;87.46
68433;BME280;55412;51.350;17.056;2023-11-21T05:26:19;99540.78;;;7.06;87.28
68433;BME280;55412;51.350;17.056;2023-11-21T05:28:44;99552.81;;;7.14;87.18
68433;BME280;55412;51.350;17.056;2023-11-21T05:31:10;99536.47;;;7.09;87.40
68433;BME280;55412;51.350;17.056;2023-11-21T05:33:36;99560.53;;;7.14;87.17
68433;BME280;55412;51.350;17.056;2023-11-21T05:36:02;99550.22;;;7.11;87.54
68433;BME280;55412;51.350;17.056;2023-11-21T05:38:28;99562.25;;;7.17;87.45
68433;BME280;55412;51.350;17.056;2023-11-21T05:40:54;99563.97;;;7.16;87.51
68433;BME280;55412;51.350;17.056;2023-11-21T05:43:19;99570.84;;;7.16;87.73
68433;BME280;55412;51.350;17.056;2023-11-21T05:45:45;99570.84;;;7.16;87.15
68433;BME280;55412;51.350;17.056;2023-11-21T05:48:11;99576.88;;;7.16;87.44
68433;BME280;55412;51.350;17.056;2023-11-21T05:50:37;99572.59;;;7.15;87.02
68433;BME280;55412;51.350;17.056;2023-11-21T05:53:03;99576.03;;;7.14;87.02
68433;BME280;55412;51.350;17.056;2023-11-21T05:55:29;99580.34;;;7.14;87.56
68433;BME280;55412;51.350;17.056;2023-11-21T05:57:55;99576.91;;;7.13;87.62
68433;BME280;55412;51.350;17.056;2023-11-21T06:00:21;99576.88;;;7.12;87.61
68433;BME280;55412;51.350;17.056;2023-11-21T06:02:52;99580.34;;;7.12;87.61
68433;BME280;55412;51.350;17.056;2023-11-21T06:05:19;99594.94;;;7.12;87.60
68433;BME280;55412;51.350;17.056;2023-11-21T06:07:46;99574.31;;;7.07;87.23
68433;BME280;55412;51.350;17.056;2023-11-21T06:10:12;99598.38;;;7.09;87.26
68433;BME280;55412;51.350;17.056;2023-11-21T06:12:39;99601.81;;;7.11;87.37
68433;BME280;55412;51.350;17.056;2023-11-21T06:15:08;99608.69;;;7.11;87.69
68433;BME280;55412;51.350;17.056;2023-11-21T06:17:37;99605.28;;;7.07;87.83
68433;BME280;55412;51.350;17.056;2023-11-21T06:20:05;99613.84;;;7.11;87.36
68433;BME280;55412;51.350;17.056;2023-11-21T06:22:39;99619.03;;;7.11;87.53
68433;BME280;55412;51.350;17.056;2023-11-21T06:25:06;99625.03;;;7.10;87.08
68433;BME280;55412;51.350;17.056;2023-11-21T06:27:37;99635.34;;;7.11;87.57
68433;BME280;55412;51.350;17.056;2023-11-21T06:30:03;99628.47;;;7.12;87.49
68433;BME280;55412;51.350;17.056;2023-11-21T06:32:29;99624.19;;;7.06;87.38
68433;BME280;55412;51.350;17.056;2023-11-21T06:34:58;99637.09;;;7.12;87.15
68433;BME280;55412;51.350;17.056;2023-11-21T06:37:29;99641.41;;;7.13;87.96
68433;BME280;55412;51.350;17.056;2023-11-21T06:39:55;99638.81;;;7.07;87.13
68433;BME280;55412;51.350;17.056;2023-11-21T06:42:22;99646.56;;;7.15;86.69
68433;BME280;55412;51.350;17.056;2023-11-21T06:44:49;99638.81;;;7.10;87.78
68433;BME280;55412;51.350;17.056;2023-11-21T06:47:17;99648.28;;;7.14;86.94
68433;BME280;55412;51.350;17.056;2023-11-21T06:49:45;99651.72;;;7.15;87.23
68433;BME280;55412;51.350;17.056;2023-11-21T06:52:13;99656.88;;;7.15;87.48
68433;BME280;55412;51.350;17.056;2023-11-21T06:54:39;99653.44;;;7.16;87.19
68433;BME280;55412;51.350;17.056;2023-11-21T06:57:05;99649.97;;;7.11;87.84
68433;BME280;55412;51.350;17.056;2023-11-21T06:59:30;99659.47;;;7.16;87.13
68433;BME280;55412;51.350;17.056;2023-11-21T07:01:57;99658.59;;;7.16;87.55
68433;BME280;55412;51.350;17.056;2023-11-21T07:04:23;99667.19;;;7.16;87.71
68433;BME280;55412;51.350;17.056;2023-11-21T07:06:51;99661.19;;;7.16;87.76
68433;BME280;55412;51.350;17.056;2023-11-21T07:09:17;99669.78;;;7.16;87.78
68433;BME280;55412;51.350;17.056;2023-11-21T07:11:45;99663.75;;;7.17;87.57
68433;BME280;55412;51.350;17.056;2023-11-21T07:14:11;99670.63;;;7.18;87.01
68433;BME280;55412;51.350;17.056;2023-11-21T07:16:37;99670.63;;;7.18;87.50
68433;BME280;55412;51.350;17.056;2023-11-21T07:19:06;99674.94;;;7.19;87.71
68433;BME280;55412;51.350;17.056;2023-11-21T07:21:36;99667.19;;;7.19;87.40
68433;BME280;55412;51.350;17.056;2023-11-21T07:24:03;99668.94;;;7.22;87.64
68433;BME280;55412;51.350;17.056;2023-11-21T07:26:30;99663.75;;;7.14;87.51
68433;BME280;55412;51.350;17.056;2023-11-21T07:28:56;99677.53;;;7.23;87.20
68433;BME280;55412;51.350;17.056;2023-11-21T07:31:22;99674.09;;;7.24;87.11
68433;BME280;55412;51.350;17.056;2023-11-21T07:33:50;99683.53;;;7.25;87.31
68433;BME280;55412;51.350;17.056;2023-11-21T07:36:21;99681.81;;;7.24;87.67
68433;BME280;55412;51.350;17.056;2023-11-21T07:38:47;99682.69;;;7.23;87.20
68433;BME280;55412;51.350;17.056;2023-11-21T07:41:13;99676.66;;;7.24;87.02
68433;BME280;55412;51.350;17.056;2023-11-21T07:43:44;99683.56;;;7.28;87.31
68433;BME280;55412;51.350;17.056;2023-11-21T07:46:10;99684.41;;;7.28;87.25
68433;BME280;55412;51.350;17.056;2023-11-21T07:48:38;99687.84;;;7.29;87.62
68433;BME280;55412;51.350;17.056;2023-11-21T07:51:04;99682.69;;;7.30;87.69
68433;BME280;55412;51.350;17.056;2023-11-21T07:53:30;99687.84;;;7.33;87.07
68433;BME280;55412;51.350;17.056;2023-11-21T07:55:56;99686.13;;;7.32;87.58
68433;BME280;55412;51.350;17.056;2023-11-21T07:58:22;99687.00;;;7.31;87.46
68433;BME280;55412;51.350;17.056;2023-11-21T08:00:49;99697.31;;;7.31;87.42
68433;BME280;55412;51.350;17.056;2023-11-21T08:03:16;99697.31;;;7.28;86.82
68433;BME280;55412;51.350;17.056;2023-11-21T08:05:42;99702.47;;;7.20;86.58
68433;BME280;55412;51.350;17.056;2023-11-21T08:08:08;99701.56;;;7.05;86.48
68433;BME280;55412;51.350;17.056;2023-11-21T08:10:34;99700.75;;;6.98;86.24
68433;BME280;55412;51.350;17.056;2023-11-21T08:13:04;99698.13;;;6.84;86.27
68433;BME280;55412;51.350;17.056;2023-11-21T08:15:30;99709.28;;;6.82;86.18
68433;BME280;55412;51.350;17.056;2023-11-21T08:17:59;99710.13;;;6.75;86.00
68433;BME280;55412;51.350;17.056;2023-11-21T08:20:25;99715.28;;;6.72;86.84
68433;BME280;55412;51.350;17.056;2023-11-21T08:22:51;99715.28;;;6.69;86.91
68433;BME280;55412;51.350;17.056;2023-11-21T08:25:22;99725.53;;;6.61;86.54
68433;BME280;55412;51.350;17.056;2023-11-21T08:27:48;99729.84;;;6.56;86.29
68433;BME280;55412;51.350;17.056;2023-11-21T08:30:14;99720.34;;;6.43;86.73
68433;BME280;55412;51.350;17.056;2023-11-21T08:32:42;99737.50;;;6.45;86.46
68433;BME280;55412;51.350;17.056;2023-11-21T08:35:08;99733.22;;;6.40;86.47
68433;BME280;55412;51.350;17.056;2023-11-21T08:37:34;99724.56;;;6.27;86.98
68433;BME280;55412;51.350;17.056;2023-11-21T08:40:04;99736.59;;;6.29;86.31
68433;BME280;55412;51.350;17.056;2023-11-21T08:42:34;99732.28;;;6.25;86.60
68433;BME280;55412;51.350;17.056;2023-11-21T08:44:59;99737.41;;;6.22;86.66
68433;BME280;55412;51.350;17.056;2023-11-21T08:47:25;99734.81;;;6.18;86.60
68433;BME280;55412;51.350;17.056;2023-11-21T08:49:52;99738.25;;;6.18;86.81
68433;BME280;55412;51.350;17.056;2023-11-21T08:52:20;99727.06;;;6.12;87.06
68433;BME280;55412;51.350;17.056;2023-11-21T08:54:49;99745.13;;;6.18;86.73
68433;BME280;55412;51.350;17.056;2023-11-21T08:57:22;99731.34;;;6.13;86.32
68433;BME280;55412;51.350;17.056;2023-11-21T08:59:48;99741.66;;;6.11;86.57
68433;BME280;55412;51.350;17.056;2023-11-21T09:02:14;99745.91;;;6.07;86.35
68433;BME280;55412;51.350;17.056;2023-11-21T09:04:39;99742.47;;;6.08;86.81
68433;BME280;55412;51.350;17.056;2023-11-21T09:07:05;99753.63;;;6.04;86.64
68433;BME280;55412;51.350;17.056;2023-11-21T09:09:31;99760.47;;;5.98;86.65
68433;BME280;55412;51.350;17.056;2023-11-21T09:11:56;99759.59;;;5.96;86.42
68433;BME280;55412;51.350;17.056;2023-11-21T09:14:22;99764.75;;;5.96;86.23
68433;BME280;55412;51.350;17.056;2023-11-21T09:16:48;99760.38;;;5.90;85.87
68433;BME280;55412;51.350;17.056;2023-11-21T09:19:16;99762.91;;;5.84;86.13
68433;BME280;55412;51.350;17.056;2023-11-21T09:21:41;99771.47;;;5.81;85.97
68433;BME280;55412;51.350;17.056;2023-11-21T09:24:07;99764.56;;;5.79;85.87
68433;BME280;55412;51.350;17.056;2023-11-21T09:26:34;99760.19;;;5.66;86.59
68433;BME280;55412;51.350;17.056;2023-11-21T09:29:00;99785.94;;;5.67;86.56
68433;BME280;55412;51.350;17.056;2023-11-21T09:31:27;99779.91;;;5.62;86.40
68433;BME280;55412;51.350;17.056;2023-11-21T09:33:53;99789.25;;;5.54;86.36
68433;BME280;55412;51.350;17.056;2023-11-21T09:36:19;99787.50;;;5.50;86.70
68433;BME280;55412;51.350;17.056;2023-11-21T09:38:46;99769.34;;;5.35;86.68
68433;BME280;55412;51.350;17.056;2023-11-21T09:41:26;99794.28;;;5.39;85.95
68433;BME280;55412;51.350;17.056;2023-11-21T09:44:02;99793.38;;;5.35;86.05
68433;BME280;55412;51.350;17.056;2023-11-21T09:46:33;99797.56;;;5.27;85.94
68433;BME280;55412;51.350;17.056;2023-11-21T09:49:00;99797.53;;;5.22;86.83
68433;BME280;55412;51.350;17.056;2023-11-21T09:51:28;99786.28;;;5.13;86.16
68433;BME280;55412;51.350;17.056;2023-11-21T09:53:59;99786.28;;;5.13;86.35
68433;BME280;55412;51.350;17.056;2023-11-21T09:56:26;99795.78;;;5.17;86.32
68433;BME280;55412;51.350;17.056;2023-11-21T09:58:53;99799.19;;;5.14;86.50
68433;BME280;55412;51.350;17.056;2023-11-21T10:01:20;99796.50;;;5.07;86.40
68433;BME280;55412;51.350;17.056;2023-11-21T10:03:46;99804.19;;;5.04;86.13
68433;BME280;55412;51.350;17.056;2023-11-21T10:06:13;99792.03;;;4.90;86.33
68433;BME280;55412;51.350;17.056;2023-11-21T10:08:40;99815.22;;;4.93;86.76
68433;BME280;55412;51.350;17.056;2023-11-21T10:11:08;99817.75;;;4.92;86.14
68433;BME280;55412;51.350;17.056;2023-11-21T10:13:37;99816.09;;;4.95;86.63
68433;BME280;55412;51.350;17.056;2023-11-21T10:16:05;99818.66;;;4.92;86.57
68433;BME280;55412;51.350;17.056;2023-11-21T10:18:33;99820.31;;;4.92;86.55
68433;BME280;55412;51.350;17.056;2023-11-21T10:21:00;99821.16;;;4.88;86.30
68433;BME280;55412;51.350;17.056;2023-11-21T10:23:27;99815.06;;;4.81;86.37
68433;BME280;55412;51.350;17.056;2023-11-21T10:25:53;99821.94;;;4.81;85.96
68433;BME280;55412;51.350;17.056;2023-11-21T10:28:20;99832.28;;;4.85;86.15
68433;BME280;55412;51.350;17.056;2023-11-21T10:30:46;99838.28;;;4.86;86.06
68433;BME280;55412;51.350;17.056;2023-11-21T10:33:12;99837.38;;;4.82;85.96
68433;BME280;55412;51.350;17.056;2023-11-21T10:38:06;99830.50;;;4.80;86.07
68433;BME280;55412;51.350;17.056;2023-11-21T10:40:38;99838.13;;;4.74;85.99
68433;BME280;55412;51.350;17.056;2023-11-21T10:43:08;99828.59;;;4.68;86.29
68433;BME280;55412;51.350;17.056;2023-11-21T10:45:39;99840.50;;;4.61;86.55
68433;BME280;55412;51.350;17.056;2023-11-21T10:48:06;99841.38;;;4.60;86.24
68433;BME280;55412;51.350;17.056;2023-11-21T10:50:37;99837.00;;;4.55;86.15
68433;BME280;55412;51.350;17.056;2023-11-21T10:53:03;99844.66;;;4.50;85.66
68433;BME280;55412;51.350;17.056;2023-11-21T10:55:30;99842.78;;;4.38;85.79
68433;BME280;55412;51.350;17.056;2023-11-21T10:57:59;99853.00;;;4.35;85.94
68433;BME280;55412;51.350;17.056;2023-11-21T11:00:26;99854.72;;;4.33;86.02
68433;BME280;55412;51.350;17.056;2023-11-21T11:02:53;99855.41;;;4.25;85.90
68433;BME280;55412;51.350;17.056;2023-11-21T11:05:21;99860.50;;;4.20;85.91
68433;BME280;55412;51.350;17.056;2023-11-21T11:07:58;99861.34;;;4.21;86.37
68433;BME280;55412;51.350;17.056;2023-11-21T11:10:28;99862.09;;;4.12;86.14
68433;BME280;55412;51.350;17.056;2023-11-21T11:12:55;99853.31;;;3.98;85.91
68433;BME280;55412;51.350;17.056;2023-11-21T11:15:23;99833.38;;;3.83;85.62
68433;BME280;55412;51.350;17.056;2023-11-21T11:17:49;99865.28;;;3.99;86.43
68433;BME280;55412;51.350;17.056;2023-11-21T11:20:16;99867.78;;;3.96;86.04
68433;BME280;55412;51.350;17.056;2023-11-21T11:22:50;99862.59;;;3.90;85.83
68433;BME280;55412;51.350;17.056;2023-11-21T11:28:14;99880.34;;;3.79;85.94
68433;BME280;55412;51.350;17.056;2023-11-21T11:33:53;99882.81;;;3.73;86.10
68433;BME280;55412;51.350;17.056;2023-11-21T11:36:34;99877.50;;;3.64;85.66
68433;BME280;55412;51.350;17.056;2023-11-21T11:39:01;99885.19;;;3.60;86.08
68433;BME280;55412;51.350;17.056;2023-11-21T11:41:30;99872.94;;;3.46;85.58
68433;BME280;55412;51.350;17.056;2023-11-21T11:43:58;99881.25;;;3.34;85.69
68433;BME280;55412;51.350;17.056;2023-11-21T11:46:44;99895.78;;;3.33;85.84
68433;BME280;55412;51.350;17.056;2023-11-21T11:49:28;99894.91;;;3.33;86.27
68433;BME280;55412;51.350;17.056;2023-11-21T11:52:31;99896.50;;;3.28;86.20
68433;BME280;55412;51.350;17.056;2023-11-21T11:54:59;99890.28;;;3.15;85.98
68433;BME280;55412;51.350;17.056;2023-11-21T11:57:30;99901.38;;;3.14;86.08
68433;BME280;55412;51.350;17.056;2023-11-21T12:00:15;99911.63;;;3.14;86.22
68433;BME280;55412;51.350;17.056;2023-11-21T12:02:56;99891.94;;;3.13;86.34
68433;BME280;55412;51.350;17.056;2023-11-21T12:05:26;99905.72;;;3.17;86.46
68433;BME280;55412;51.350;17.056;2023-11-21T12:08:00;99909.84;;;3.10;86.06
68433;BME280;55412;51.350;17.056;2023-11-21T12:10:30;99910.56;;;3.03;85.89
68433;BME280;55412;51.350;17.056;2023-11-21T12:12:58;99909.56;;;2.96;86.11
68433;BME280;55412;51.350;17.056;2023-11-21T12:15:24;99925.69;;;2.92;86.30
68433;BME280;55412;51.350;17.056;2023-11-21T12:17:53;99925.63;;;2.89;86.42
68433;BME280;55412;51.350;17.056;2023-11-21T12:20:20;99910.97;;;2.84;86.21
68433;BME280;55412;51.350;17.056;2023-11-21T12:22:48;99924.78;;;2.89;86.34
68433;BME280;55412;51.350;17.056;2023-11-21T12:25:25;99924.75;;;2.87;86.04
68433;BME280;55412;51.350;17.056;2023-11-21T12:27:54;99928.91;;;2.82;86.07
68433;BME280;55412;51.350;17.056;2023-11-21T12:30:21;99926.16;;;2.74;86.05
68433;BME280;55412;51.350;17.056;2023-11-21T12:32:49;99931.19;;;2.70;86.16
68433;BME280;55412;51.350;17.056;2023-11-21T12:35:16;99944.13;;;2.76;86.56
68433;BME280;55412;51.350;17.056;2023-11-21T12:37:45;99931.97;;;2.66;86.35
68433;BME280;55412;51.350;17.056;2023-11-21T12:40:13;99943.81;;;2.62;86.23
68433;BME280;55412;51.350;17.056;2023-11-21T12:42:45;99952.28;;;2.58;86.23
68433;BME280;55412;51.350;17.056;2023-11-21T12:47:47;99947.91;;;2.54;86.11
68433;BME280;55412;51.350;17.056;2023-11-21T12:50:14;99944.31;;;2.47;85.92
68433;BME280;55412;51.350;17.056;2023-11-21T12:52:42;99949.59;;;2.54;86.17
68433;BME280;55412;51.350;17.056;2023-11-21T12:55:30;99967.47;;;2.51;85.93
68433;BME280;55412;51.350;17.056;2023-11-21T12:57:57;99965.59;;;2.43;86.26
68433;BME280;55412;51.350;17.056;2023-11-21T13:00:49;99972.22;;;2.35;85.89
68433;BME280;55412;51.350;17.056;2023-11-21T13:03:17;99972.94;;;2.30;86.00
68433;BME280;55412;51.350;17.056;2023-11-21T13:05:46;99978.75;;;2.24;86.24
68433;BME280;55412;51.350;17.056;2023-11-21T13:08:16;99969.03;;;2.11;86.13
68433;BME280;55412;51.350;17.056;2023-11-21T13:10:45;99983.69;;;2.16;86.58
68433;BME280;55412;51.350;17.056;2023-11-21T13:13:14;99995.66;;;2.17;86.51